sensor_id;sensor_type;location;lat;lon;timestamp;P1;durP1;ratioP1;P2;durP2;ratioP2
1995;SDS011;38556;47.068;15.408;2023-02-28T00:01:11;21.73;;;20.42;;
1995;SDS011;38556;47.068;15.408;2023-02-28T00:03:40;20.52;;;19.42;;
1995;SDS011;38556;47.068;15.408;2023-02-28T00:06:07;26.60;;;24.70;;
1995;SDS011;38556;47.068;15.408;2023-02-28T00:08:35;22.08;;;20.75;;
1995;SDS011;38556;47.068;15.408;2023-02-28T00:11:04;21.95;;;20.45;;
1995;SDS011;38556;47.068;15.408;2023-02-28T00:13:35;21.73;;;20.50;;
1995;SDS011;38556;47.068;15.408;2023-02-28T00:16:05;21.65;;;20.42;;
1995;SDS011;38556;47.068;15.408;2023-02-28T00:18:34;21.00;;;19.80;;
1995;SDS011;38556;47.068;15.408;2023-02-28T00:21:02;21.70;;;20.35;;
1995;SDS011;38556;47.068;15.408;2023-02-28T00:23:30;21.20;;;20.10;;
1995;SDS011;38556;47.068;15.408;2023-02-28T00:25:58;21.73;;;20.42;;
1995;SDS011;38556;47.068;15.408;2023-02-28T00:28:25;21.05;;;19.95;;
1995;SDS011;38556;47.068;15.408;2023-02-28T00:30:54;21.60;;;20.30;;
1995;SDS011;38556;47.068;15.408;2023-02-28T00:33:22;21.95;;;20.65;;
1995;SDS011;38556;47.068;15.408;2023-02-28T00:35:49;21.90;;;20.60;;
1995;SDS011;38556;47.068;15.408;2023-02-28T00:38:17;21.77;;;20.55;;
1995;SDS011;38556;47.068;15.408;2023-02-28T00:40:45;22.42;;;21.08;;
1995;SDS011;38556;47.068;15.408;2023-02-28T00:43:12;22.42;;;21.02;;
1995;SDS011;38556;47.068;15.408;2023-02-28T00:45:39;21.80;;;20.60;;
1995;SDS011;38556;47.068;15.408;2023-02-28T00:48:09;21.98;;;20.77;;
1995;SDS011;38556;47.068;15.408;2023-02-28T00:50:36;22.15;;;20.85;;
1995;SDS011;38556;47.068;15.408;2023-02-28T00:53:03;21.98;;;20.67;;
1995;SDS011;38556;47.068;15.408;2023-02-28T00:55:31;22.08;;;20.77;;
1995;SDS011;38556;47.068;15.408;2023-02-28T00:57:58;22.20;;;20.80;;
1995;SDS011;38556;47.068;15.408;2023-02-28T01:00:25;21.70;;;20.50;;
1995;SDS011;38556;47.068;15.408;2023-02-28T01:02:53;21.83;;;20.63;;
1995;SDS011;38556;47.068;15.408;2023-02-28T01:05:22;20.80;;;19.70;;
1995;SDS011;38556;47.068;15.408;2023-02-28T01:07:49;21.63;;;20.23;;
1995;SDS011;38556;47.068;15.408;2023-02-28T01:10:16;23.23;;;21.67;;
1995;SDS011;38556;47.068;15.408;2023-02-28T01:12:44;22.23;;;20.92;;
1995;SDS011;38556;47.068;15.408;2023-02-28T01:15:11;22.70;;;21.40;;
1995;SDS011;38556;47.068;15.408;2023-02-28T01:17:39;22.50;;;21.00;;
1995;SDS011;38556;47.068;15.408;2023-02-28T01:20:07;22.92;;;21.52;;
1995;SDS011;38556;47.068;15.408;2023-02-28T01:22:36;22.73;;;21.42;;
1995;SDS011;38556;47.068;15.408;2023-02-28T01:25:04;21.83;;;20.52;;
1995;SDS011;38556;47.068;15.408;2023-02-28T01:27:33;22.30;;;20.80;;
1995;SDS011;38556;47.068;15.408;2023-02-28T01:30:01;22.45;;;21.25;;
1995;SDS011;38556;47.068;15.408;2023-02-28T01:32:28;22.90;;;21.50;;
1995;SDS011;38556;47.068;15.408;2023-02-28T01:34:55;23.27;;;21.90;;
1995;SDS011;38556;47.068;15.408;2023-02-28T01:37:23;22.38;;;20.90;;
1995;SDS011;38556;47.068;15.408;2023-02-28T01:39:51;22.42;;;21.00;;
1995;SDS011;38556;47.068;15.408;2023-02-28T01:42:19;23.42;;;22.02;;
1995;SDS011;38556;47.068;15.408;2023-02-28T01:45:04;22.83;;;21.55;;
1995;SDS011;38556;47.068;15.408;2023-02-28T01:47:45;22.67;;;21.10;;
1995;SDS011;38556;47.068;15.408;2023-02-28T01:50:14;22.40;;;20.98;;
1995;SDS011;38556;47.068;15.408;2023-02-28T01:52:45;23.40;;;21.90;;
1995;SDS011;38556;47.068;15.408;2023-02-28T01:55:14;22.75;;;21.40;;
1995;SDS011;38556;47.068;15.408;2023-02-28T01:57:46;22.42;;;21.13;;
1995;SDS011;38556;47.068;15.408;2023-02-28T02:00:15;23.17;;;21.75;;
1995;SDS011;38556;47.068;15.408;2023-02-28T02:02:47;22.27;;;20.95;;
1995;SDS011;38556;47.068;15.408;2023-02-28T02:05:17;21.73;;;20.42;;
1995;SDS011;38556;47.068;15.408;2023-02-28T02:07:49;22.80;;;21.30;;
1995;SDS011;38556;47.068;15.408;2023-02-28T02:10:20;22.83;;;21.50;;
1995;SDS011;38556;47.068;15.408;2023-02-28T02:12:55;22.23;;;20.92;;
1995;SDS011;38556;47.068;15.408;2023-02-28T02:15:38;22.90;;;21.27;;
1995;SDS011;38556;47.068;15.408;2023-02-28T02:18:11;23.88;;;22.35;;
1995;SDS011;38556;47.068;15.408;2023-02-28T02:21:12;22.52;;;21.25;;
1995;SDS011;38556;47.068;15.408;2023-02-28T02:24:22;22.73;;;21.33;;
1995;SDS011;38556;47.068;15.408;2023-02-28T02:33:26;22.00;;;20.80;;
1995;SDS011;38556;47.068;15.408;2023-02-28T02:36:11;22.60;;;21.30;;
1995;SDS011;38556;47.068;15.408;2023-02-28T02:38:45;22.50;;;21.25;;
1995;SDS011;38556;47.068;15.408;2023-02-28T02:41:18;21.65;;;20.55;;
1995;SDS011;38556;47.068;15.408;2023-02-28T02:43:51;22.52;;;21.00;;
1995;SDS011;38556;47.068;15.408;2023-02-28T02:46:22;23.17;;;21.70;;
1995;SDS011;38556;47.068;15.408;2023-02-28T02:48:54;24.10;;;22.70;;
1995;SDS011;38556;47.068;15.408;2023-02-28T02:51:26;23.45;;;21.95;;
1995;SDS011;38556;47.068;15.408;2023-02-28T02:53:56;23.92;;;22.27;;
1995;SDS011;38556;47.068;15.408;2023-02-28T02:56:27;23.65;;;22.25;;
1995;SDS011;38556;47.068;15.408;2023-02-28T02:58:58;24.80;;;23.00;;
1995;SDS011;38556;47.068;15.408;2023-02-28T03:01:28;24.30;;;22.70;;
1995;SDS011;38556;47.068;15.408;2023-02-28T03:03:58;23.50;;;22.10;;
1995;SDS011;38556;47.068;15.408;2023-02-28T03:06:29;24.08;;;22.58;;
1995;SDS011;38556;47.068;15.408;2023-02-28T03:08:56;24.20;;;22.75;;
1995;SDS011;38556;47.068;15.408;2023-02-28T03:11:24;25.02;;;23.40;;
1995;SDS011;38556;47.068;15.408;2023-02-28T03:13:52;24.40;;;23.00;;
1995;SDS011;38556;47.068;15.408;2023-02-28T03:16:29;24.30;;;23.00;;
1995;SDS011;38556;47.068;15.408;2023-02-28T03:19:03;24.70;;;22.83;;
1995;SDS011;38556;47.068;15.408;2023-02-28T03:21:46;25.35;;;23.48;;
1995;SDS011;38556;47.068;15.408;2023-02-28T03:24:24;24.65;;;23.15;;
1995;SDS011;38556;47.068;15.408;2023-02-28T03:27:02;24.80;;;23.35;;
1995;SDS011;38556;47.068;15.408;2023-02-28T03:29:35;25.58;;;23.67;;
1995;SDS011;38556;47.068;15.408;2023-02-28T03:32:07;24.63;;;23.10;;
1995;SDS011;38556;47.068;15.408;2023-02-28T03:34:41;25.60;;;24.00;;
1995;SDS011;38556;47.068;15.408;2023-02-28T03:37:15;25.63;;;24.13;;
1995;SDS011;38556;47.068;15.408;2023-02-28T03:39:49;24.13;;;22.63;;
1995;SDS011;38556;47.068;15.408;2023-02-28T03:42:23;24.60;;;23.02;;
1995;SDS011;38556;47.068;15.408;2023-02-28T03:44:53;25.23;;;23.73;;
1995;SDS011;38556;47.068;15.408;2023-02-28T03:47:26;25.38;;;23.80;;
1995;SDS011;38556;47.068;15.408;2023-02-28T03:49:59;25.83;;;24.20;;
1995;SDS011;38556;47.068;15.408;2023-02-28T03:52:33;24.63;;;23.23;;
1995;SDS011;38556;47.068;15.408;2023-02-28T03:55:03;25.17;;;23.48;;
1995;SDS011;38556;47.068;15.408;2023-02-28T03:57:37;24.98;;;23.35;;
1995;SDS011;38556;47.068;15.408;2023-02-28T04:00:12;25.42;;;23.75;;
1995;SDS011;38556;47.068;15.408;2023-02-28T04:02:42;24.83;;;23.17;;
1995;SDS011;38556;47.068;15.408;2023-02-28T04:05:10;25.80;;;24.05;;
1995;SDS011;38556;47.068;15.408;2023-02-28T04:07:39;25.02;;;23.42;;
1995;SDS011;38556;47.068;15.408;2023-02-28T04:10:06;25.55;;;24.02;;
1995;SDS011;38556;47.068;15.408;2023-02-28T04:12:35;25.83;;;24.15;;
1995;SDS011;38556;47.068;15.408;2023-02-28T04:15:02;25.35;;;23.83;;
1995;SDS011;38556;47.068;15.408;2023-02-28T04:17:31;24.67;;;23.08;;
1995;SDS011;38556;47.068;15.408;2023-02-28T04:19:58;25.00;;;23.15;;
1995;SDS011;38556;47.068;15.408;2023-02-28T04:22:25;25.20;;;23.40;;
1995;SDS011;38556;47.068;15.408;2023-02-28T04:24:54;24.30;;;22.70;;
1995;SDS011;38556;47.068;15.408;2023-02-28T04:27:21;25.50;;;23.80;;
1995;SDS011;38556;47.068;15.408;2023-02-28T04:29:48;25.00;;;23.30;;
1995;SDS011;38556;47.068;15.408;2023-02-28T04:32:16;25.20;;;23.40;;
1995;SDS011;38556;47.068;15.408;2023-02-28T04:34:44;25.40;;;23.25;;
1995;SDS011;38556;47.068;15.408;2023-02-28T04:37:11;24.98;;;23.38;;
1995;SDS011;38556;47.068;15.408;2023-02-28T04:39:39;24.52;;;23.00;;
1995;SDS011;38556;47.068;15.408;2023-02-28T04:42:08;25.45;;;23.85;;
1995;SDS011;38556;47.068;15.408;2023-02-28T04:44:36;27.20;;;25.15;;
1995;SDS011;38556;47.068;15.408;2023-02-28T04:47:03;24.77;;;23.20;;
1995;SDS011;38556;47.068;15.408;2023-02-28T04:49:31;25.58;;;23.85;;
1995;SDS011;38556;47.068;15.408;2023-02-28T04:51:58;25.10;;;23.27;;
1995;SDS011;38556;47.068;15.408;2023-02-28T04:54:25;26.13;;;24.23;;
1995;SDS011;38556;47.068;15.408;2023-02-28T04:56:54;26.02;;;24.17;;
1995;SDS011;38556;47.068;15.408;2023-02-28T04:59:22;24.80;;;23.02;;
1995;SDS011;38556;47.068;15.408;2023-02-28T05:01:50;25.27;;;23.67;;
1995;SDS011;38556;47.068;15.408;2023-02-28T05:04:17;24.80;;;23.13;;
1995;SDS011;38556;47.068;15.408;2023-02-28T05:06:45;25.73;;;24.02;;
1995;SDS011;38556;47.068;15.408;2023-02-28T05:09:12;25.08;;;23.30;;
1995;SDS011;38556;47.068;15.408;2023-02-28T05:11:39;25.75;;;23.95;;
1995;SDS011;38556;47.068;15.408;2023-02-28T05:14:09;26.83;;;24.70;;
1995;SDS011;38556;47.068;15.408;2023-02-28T05:16:39;24.60;;;22.92;;
1995;SDS011;38556;47.068;15.408;2023-02-28T05:19:07;26.10;;;24.20;;
1995;SDS011;38556;47.068;15.408;2023-02-28T05:21:35;24.35;;;22.75;;
1995;SDS011;38556;47.068;15.408;2023-02-28T05:24:05;26.25;;;24.40;;
1995;SDS011;38556;47.068;15.408;2023-02-28T05:26:34;26.55;;;24.75;;
1995;SDS011;38556;47.068;15.408;2023-02-28T05:29:03;25.77;;;23.98;;
1995;SDS011;38556;47.068;15.408;2023-02-28T05:31:31;25.63;;;23.92;;
1995;SDS011;38556;47.068;15.408;2023-02-28T05:34:00;27.00;;;25.10;;
1995;SDS011;38556;47.068;15.408;2023-02-28T05:36:30;25.63;;;23.85;;
1995;SDS011;38556;47.068;15.408;2023-02-28T05:38:57;25.77;;;23.95;;
1995;SDS011;38556;47.068;15.408;2023-02-28T05:41:25;25.45;;;23.83;;
1995;SDS011;38556;47.068;15.408;2023-02-28T05:43:52;25.27;;;23.48;;
1995;SDS011;38556;47.068;15.408;2023-02-28T05:46:19;24.48;;;22.88;;
1995;SDS011;38556;47.068;15.408;2023-02-28T05:48:47;25.20;;;23.40;;
1995;SDS011;38556;47.068;15.408;2023-02-28T05:51:16;26.30;;;24.42;;
1995;SDS011;38556;47.068;15.408;2023-02-28T05:53:43;26.67;;;24.75;;
1995;SDS011;38556;47.068;15.408;2023-02-28T05:56:11;25.75;;;23.95;;
1995;SDS011;38556;47.068;15.408;2023-02-28T05:58:38;27.05;;;25.00;;
1995;SDS011;38556;47.068;15.408;2023-02-28T06:01:19;27.98;;;25.98;;
1995;SDS011;38556;47.068;15.408;2023-02-28T06:03:48;26.48;;;24.50;;
1995;SDS011;38556;47.068;15.408;2023-02-28T06:06:17;25.10;;;23.40;;
1995;SDS011;38556;47.068;15.408;2023-02-28T06:08:45;25.25;;;23.65;;
1995;SDS011;38556;47.068;15.408;2023-02-28T06:11:12;26.48;;;24.73;;
1995;SDS011;38556;47.068;15.408;2023-02-28T06:13:40;27.25;;;25.35;;
1995;SDS011;38556;47.068;15.408;2023-02-28T06:16:08;25.75;;;24.05;;
1995;SDS011;38556;47.068;15.408;2023-02-28T06:18:37;26.08;;;24.08;;
1995;SDS011;38556;47.068;15.408;2023-02-28T06:21:04;24.88;;;23.08;;
1995;SDS011;38556;47.068;15.408;2023-02-28T06:23:33;26.35;;;24.42;;
1995;SDS011;38556;47.068;15.408;2023-02-28T06:26:00;27.25;;;25.20;;
1995;SDS011;38556;47.068;15.408;2023-02-28T06:28:27;28.38;;;26.30;;
1995;SDS011;38556;47.068;15.408;2023-02-28T06:30:55;26.25;;;24.30;;
1995;SDS011;38556;47.068;15.408;2023-02-28T06:33:22;26.25;;;24.25;;
1995;SDS011;38556;47.068;15.408;2023-02-28T06:35:51;25.13;;;23.17;;
1995;SDS011;38556;47.068;15.408;2023-02-28T06:38:18;24.80;;;23.20;;
1995;SDS011;38556;47.068;15.408;2023-02-28T06:40:53;25.02;;;23.40;;
1995;SDS011;38556;47.068;15.408;2023-02-28T06:43:21;26.92;;;24.73;;
1995;SDS011;38556;47.068;15.408;2023-02-28T06:45:49;24.98;;;23.38;;
1995;SDS011;38556;47.068;15.408;2023-02-28T06:48:16;32.67;;;30.15;;
1995;SDS011;38556;47.068;15.408;2023-02-28T06:50:44;25.55;;;23.75;;
1995;SDS011;38556;47.068;15.408;2023-02-28T06:53:12;24.85;;;23.05;;
1995;SDS011;38556;47.068;15.408;2023-02-28T06:55:39;26.67;;;24.58;;
1995;SDS011;38556;47.068;15.408;2023-02-28T06:58:09;26.98;;;25.15;;
1995;SDS011;38556;47.068;15.408;2023-02-28T07:00:40;25.75;;;23.98;;
1995;SDS011;38556;47.068;15.408;2023-02-28T07:03:09;26.08;;;24.10;;
1995;SDS011;38556;47.068;15.408;2023-02-28T07:05:36;26.73;;;24.77;;
1995;SDS011;38556;47.068;15.408;2023-02-28T07:08:05;26.10;;;24.15;;
1995;SDS011;38556;47.068;15.408;2023-02-28T07:10:32;33.08;;;25.63;;
1995;SDS011;38556;47.068;15.408;2023-02-28T07:13:00;28.45;;;25.67;;
1995;SDS011;38556;47.068;15.408;2023-02-28T07:15:28;26.55;;;24.25;;
1995;SDS011;38556;47.068;15.408;2023-02-28T07:17:56;27.33;;;25.05;;
1995;SDS011;38556;47.068;15.408;2023-02-28T07:20:26;25.85;;;23.92;;
1995;SDS011;38556;47.068;15.408;2023-02-28T07:22:54;27.67;;;25.20;;
1995;SDS011;38556;47.068;15.408;2023-02-28T07:25:21;28.33;;;25.52;;
1995;SDS011;38556;47.068;15.408;2023-02-28T07:27:49;26.83;;;24.67;;
1995;SDS011;38556;47.068;15.408;2023-02-28T07:30:17;27.52;;;25.52;;
1995;SDS011;38556;47.068;15.408;2023-02-28T07:32:46;26.67;;;24.73;;
1995;SDS011;38556;47.068;15.408;2023-02-28T07:35:13;27.00;;;25.00;;
1995;SDS011;38556;47.068;15.408;2023-02-28T07:37:41;27.05;;;24.70;;
1995;SDS011;38556;47.068;15.408;2023-02-28T07:40:10;26.73;;;24.83;;
1995;SDS011;38556;47.068;15.408;2023-02-28T07:42:38;27.33;;;25.15;;
1995;SDS011;38556;47.068;15.408;2023-02-28T07:45:06;25.92;;;24.13;;
1995;SDS011;38556;47.068;15.408;2023-02-28T07:47:37;28.50;;;26.48;;
1995;SDS011;38556;47.068;15.408;2023-02-28T07:50:06;26.77;;;24.63;;
1995;SDS011;38556;47.068;15.408;2023-02-28T07:52:35;26.95;;;24.77;;
1995;SDS011;38556;47.068;15.408;2023-02-28T07:55:04;27.50;;;25.50;;
1995;SDS011;38556;47.068;15.408;2023-02-28T07:57:31;27.95;;;25.85;;
1995;SDS011;38556;47.068;15.408;2023-02-28T07:59:59;26.17;;;24.48;;
1995;SDS011;38556;47.068;15.408;2023-02-28T08:02:27;27.52;;;25.38;;
1995;SDS011;38556;47.068;15.408;2023-02-28T08:04:54;28.10;;;26.02;;
1995;SDS011;38556;47.068;15.408;2023-02-28T08:07:23;29.00;;;26.75;;
1995;SDS011;38556;47.068;15.408;2023-02-28T08:09:50;28.23;;;26.25;;
1995;SDS011;38556;47.068;15.408;2023-02-28T08:12:18;27.90;;;25.88;;
1995;SDS011;38556;47.068;15.408;2023-02-28T08:14:45;29.77;;;27.30;;
1995;SDS011;38556;47.068;15.408;2023-02-28T08:17:12;27.63;;;25.48;;
1995;SDS011;38556;47.068;15.408;2023-02-28T08:19:39;29.23;;;26.98;;
1995;SDS011;38556;47.068;15.408;2023-02-28T08:22:07;27.85;;;25.65;;
1995;SDS011;38556;47.068;15.408;2023-02-28T08:24:36;28.67;;;26.35;;
1995;SDS011;38556;47.068;15.408;2023-02-28T08:27:03;27.70;;;25.80;;
1995;SDS011;38556;47.068;15.408;2023-02-28T08:29:30;28.65;;;26.65;;
1995;SDS011;38556;47.068;15.408;2023-02-28T08:31:59;28.85;;;26.85;;
1995;SDS011;38556;47.068;15.408;2023-02-28T08:34:26;27.50;;;25.50;;
1995;SDS011;38556;47.068;15.408;2023-02-28T08:36:54;29.13;;;27.02;;
1995;SDS011;38556;47.068;15.408;2023-02-28T08:39:21;28.73;;;26.80;;
1995;SDS011;38556;47.068;15.408;2023-02-28T08:41:50;28.13;;;25.92;;
1995;SDS011;38556;47.068;15.408;2023-02-28T08:44:17;27.50;;;25.55;;
1995;SDS011;38556;47.068;15.408;2023-02-28T08:46:44;27.95;;;26.00;;
1995;SDS011;38556;47.068;15.408;2023-02-28T08:49:11;27.80;;;25.70;;
1995;SDS011;38556;47.068;15.408;2023-02-28T08:51:39;29.63;;;27.50;;
1995;SDS011;38556;47.068;15.408;2023-02-28T08:54:07;28.48;;;26.48;;
1995;SDS011;38556;47.068;15.408;2023-02-28T08:56:38;29.10;;;27.00;;
1995;SDS011;38556;47.068;15.408;2023-02-28T08:59:08;27.67;;;25.67;;
1995;SDS011;38556;47.068;15.408;2023-02-28T09:01:35;30.40;;;28.00;;
1995;SDS011;38556;47.068;15.408;2023-02-28T09:04:03;29.38;;;27.08;;
1995;SDS011;38556;47.068;15.408;2023-02-28T09:06:32;29.10;;;27.00;;
1995;SDS011;38556;47.068;15.408;2023-02-28T09:08:59;28.08;;;26.10;;
1995;SDS011;38556;47.068;15.408;2023-02-28T09:11:28;28.65;;;26.38;;
1995;SDS011;38556;47.068;15.408;2023-02-28T09:13:56;29.40;;;27.10;;
1995;SDS011;38556;47.068;15.408;2023-02-28T09:16:25;29.75;;;27.45;;
1995;SDS011;38556;47.068;15.408;2023-02-28T09:18:53;29.63;;;27.33;;
1995;SDS011;38556;47.068;15.408;2023-02-28T09:21:20;30.70;;;28.40;;
1995;SDS011;38556;47.068;15.408;2023-02-28T09:23:49;30.38;;;27.92;;
1995;SDS011;38556;47.068;15.408;2023-02-28T09:26:18;30.92;;;28.48;;
1995;SDS011;38556;47.068;15.408;2023-02-28T09:28:45;31.08;;;27.73;;
1995;SDS011;38556;47.068;15.408;2023-02-28T09:31:14;31.45;;;29.20;;
1995;SDS011;38556;47.068;15.408;2023-02-28T09:33:43;30.15;;;28.02;;
1995;SDS011;38556;47.068;15.408;2023-02-28T09:36:11;31.35;;;28.83;;
1995;SDS011;38556;47.068;15.408;2023-02-28T09:38:38;32.50;;;30.13;;
1995;SDS011;38556;47.068;15.408;2023-02-28T09:41:10;32.88;;;30.55;;
1995;SDS011;38556;47.068;15.408;2023-02-28T09:43:40;33.10;;;30.65;;
1995;SDS011;38556;47.068;15.408;2023-02-28T09:46:14;34.03;;;31.38;;
1995;SDS011;38556;47.068;15.408;2023-02-28T09:48:55;33.15;;;30.75;;
1995;SDS011;38556;47.068;15.408;2023-02-28T09:51:28;33.05;;;30.45;;
1995;SDS011;38556;47.068;15.408;2023-02-28T09:54:01;31.90;;;29.13;;
1995;SDS011;38556;47.068;15.408;2023-02-28T09:56:30;33.47;;;30.85;;
1995;SDS011;38556;47.068;15.408;2023-02-28T09:59:00;35.63;;;31.77;;
1995;SDS011;38556;47.068;15.408;2023-02-28T10:01:34;30.80;;;28.70;;
1995;SDS011;38556;47.068;15.408;2023-02-28T10:04:12;31.50;;;28.48;;
1995;SDS011;38556;47.068;15.408;2023-02-28T10:06:44;33.83;;;31.10;;
1995;SDS011;38556;47.068;15.408;2023-02-28T10:09:13;31.95;;;29.65;;
1995;SDS011;38556;47.068;15.408;2023-02-28T10:11:46;31.48;;;29.25;;
1995;SDS011;38556;47.068;15.408;2023-02-28T10:14:15;31.70;;;29.20;;
1995;SDS011;38556;47.068;15.408;2023-02-28T10:16:46;31.40;;;29.08;;
1995;SDS011;38556;47.068;15.408;2023-02-28T10:19:20;32.55;;;30.05;;
1995;SDS011;38556;47.068;15.408;2023-02-28T10:21:52;32.33;;;29.88;;
1995;SDS011;38556;47.068;15.408;2023-02-28T10:24:26;32.38;;;30.00;;
1995;SDS011;38556;47.068;15.408;2023-02-28T10:26:59;33.05;;;30.55;;
1995;SDS011;38556;47.068;15.408;2023-02-28T10:29:29;31.88;;;29.38;;
1995;SDS011;38556;47.068;15.408;2023-02-28T10:31:59;30.95;;;28.35;;
1995;SDS011;38556;47.068;15.408;2023-02-28T10:34:31;31.55;;;29.35;;
1995;SDS011;38556;47.068;15.408;2023-02-28T10:36:58;32.38;;;29.95;;
1995;SDS011;38556;47.068;15.408;2023-02-28T10:39:34;31.23;;;29.13;;
1995;SDS011;38556;47.068;15.408;2023-02-28T10:42:03;33.53;;;30.95;;
1995;SDS011;38556;47.068;15.408;2023-02-28T10:44:31;33.95;;;31.33;;
1995;SDS011;38556;47.068;15.408;2023-02-28T10:46:58;32.20;;;29.75;;
1995;SDS011;38556;47.068;15.408;2023-02-28T10:49:27;31.40;;;29.10;;
1995;SDS011;38556;47.068;15.408;2023-02-28T10:51:57;33.17;;;30.75;;
1995;SDS011;38556;47.068;15.408;2023-02-28T10:54:27;34.40;;;31.70;;
1995;SDS011;38556;47.068;15.408;2023-02-28T10:57:12;34.67;;;32.03;;
1995;SDS011;38556;47.068;15.408;2023-02-28T10:59:44;32.92;;;30.27;;
1995;SDS011;38556;47.068;15.408;2023-02-28T11:02:29;32.35;;;30.05;;
1995;SDS011;38556;47.068;15.408;2023-02-28T11:04:57;33.70;;;30.77;;
1995;SDS011;38556;47.068;15.408;2023-02-28T11:07:26;33.20;;;30.48;;
1995;SDS011;38556;47.068;15.408;2023-02-28T11:09:55;33.92;;;30.83;;
1995;SDS011;38556;47.068;15.408;2023-02-28T11:12:25;33.45;;;30.15;;
1995;SDS011;38556;47.068;15.408;2023-02-28T11:14:55;33.03;;;30.35;;
1995;SDS011;38556;47.068;15.408;2023-02-28T11:17:26;33.60;;;31.00;;
1995;SDS011;38556;47.068;15.408;2023-02-28T11:19:54;32.78;;;30.40;;
1995;SDS011;38556;47.068;15.408;2023-02-28T11:22:27;32.92;;;30.48;;
1995;SDS011;38556;47.068;15.408;2023-02-28T11:24:57;32.60;;;30.20;;
1995;SDS011;38556;47.068;15.408;2023-02-28T11:27:41;33.03;;;30.52;;
1995;SDS011;38556;47.068;15.408;2023-02-28T11:30:25;33.53;;;30.75;;
1995;SDS011;38556;47.068;15.408;2023-02-28T11:32:58;32.38;;;30.08;;
1995;SDS011;38556;47.068;15.408;2023-02-28T11:35:27;33.00;;;30.50;;
1995;SDS011;38556;47.068;15.408;2023-02-28T11:37:59;34.45;;;31.55;;
1995;SDS011;38556;47.068;15.408;2023-02-28T11:40:30;33.97;;;31.33;;
1995;SDS011;38556;47.068;15.408;2023-02-28T11:43:13;34.92;;;31.85;;
1995;SDS011;38556;47.068;15.408;2023-02-28T11:46:01;36.08;;;33.30;;
1995;SDS011;38556;47.068;15.408;2023-02-28T11:48:42;34.10;;;31.20;;
1995;SDS011;38556;47.068;15.408;2023-02-28T11:51:18;34.40;;;31.83;;
1995;SDS011;38556;47.068;15.408;2023-02-28T11:53:55;33.67;;;31.15;;
1995;SDS011;38556;47.068;15.408;2023-02-28T11:56:47;37.38;;;34.50;;
1995;SDS011;38556;47.068;15.408;2023-02-28T11:59:28;36.40;;;33.50;;
1995;SDS011;38556;47.068;15.408;2023-02-28T12:02:15;34.25;;;31.38;;
1995;SDS011;38556;47.068;15.408;2023-02-28T12:04:58;33.45;;;30.67;;
1995;SDS011;38556;47.068;15.408;2023-02-28T12:07:43;34.75;;;31.85;;
1995;SDS011;38556;47.068;15.408;2023-02-28T12:10:24;33.15;;;30.55;;
1995;SDS011;38556;47.068;15.408;2023-02-28T12:12:59;34.85;;;31.83;;
1995;SDS011;38556;47.068;15.408;2023-02-28T12:21:33;35.55;;;32.65;;
1995;SDS011;38556;47.068;15.408;2023-02-28T12:24:24;34.30;;;31.73;;
1995;SDS011;38556;47.068;15.408;2023-02-28T12:27:07;34.33;;;31.70;;
1995;SDS011;38556;47.068;15.408;2023-02-28T12:29:40;33.35;;;30.52;;
1995;SDS011;38556;47.068;15.408;2023-02-28T12:32:12;35.65;;;32.63;;
1995;SDS011;38556;47.068;15.408;2023-02-28T12:34:46;34.75;;;31.90;;
1995;SDS011;38556;47.068;15.408;2023-02-28T12:37:19;34.58;;;31.80;;
1995;SDS011;38556;47.068;15.408;2023-02-28T12:39:51;32.45;;;29.85;;
1995;SDS011;38556;47.068;15.408;2023-02-28T12:42:28;35.80;;;32.45;;
1995;SDS011;38556;47.068;15.408;2023-02-28T12:44:59;34.75;;;32.00;;
1995;SDS011;38556;47.068;15.408;2023-02-28T12:47:29;36.47;;;33.28;;
1995;SDS011;38556;47.068;15.408;2023-02-28T12:49:58;32.67;;;30.17;;
1995;SDS011;38556;47.068;15.408;2023-02-28T12:52:31;35.33;;;32.42;;
1995;SDS011;38556;47.068;15.408;2023-02-28T12:55:07;34.83;;;32.03;;
1995;SDS011;38556;47.068;15.408;2023-02-28T12:57:42;34.72;;;31.92;;
1995;SDS011;38556;47.068;15.408;2023-02-28T13:00:16;36.58;;;33.35;;
1995;SDS011;38556;47.068;15.408;2023-02-28T13:02:54;34.85;;;31.80;;
1995;SDS011;38556;47.068;15.408;2023-02-28T13:05:46;35.30;;;32.15;;
1995;SDS011;38556;47.068;15.408;2023-02-28T13:08:43;32.95;;;30.45;;
1995;SDS011;38556;47.068;15.408;2023-02-28T13:11:28;33.78;;;30.98;;
1995;SDS011;38556;47.068;15.408;2023-02-28T13:14:00;33.72;;;30.67;;
1995;SDS011;38556;47.068;15.408;2023-02-28T13:16:28;33.30;;;30.60;;
1995;SDS011;38556;47.068;15.408;2023-02-28T13:19:22;34.10;;;31.15;;
1995;SDS011;38556;47.068;15.408;2023-02-28T13:21:52;33.58;;;30.50;;
1995;SDS011;38556;47.068;15.408;2023-02-28T13:24:40;32.50;;;30.00;;
1995;SDS011;38556;47.068;15.408;2023-02-28T13:27:20;32.85;;;30.25;;
1995;SDS011;38556;47.068;15.408;2023-02-28T13:29:52;33.70;;;31.10;;
1995;SDS011;38556;47.068;15.408;2023-02-28T13:32:28;33.67;;;30.90;;
1995;SDS011;38556;47.068;15.408;2023-02-28T13:38:12;33.05;;;30.42;;
1995;SDS011;38556;47.068;15.408;2023-02-28T13:40:48;34.78;;;31.88;;
1995;SDS011;38556;47.068;15.408;2023-02-28T13:43:16;35.42;;;32.42;;
1995;SDS011;38556;47.068;15.408;2023-02-28T13:48:37;35.95;;;32.65;;
1995;SDS011;38556;47.068;15.408;2023-02-28T13:54:16;34.53;;;31.60;;
1995;SDS011;38556;47.068;15.408;2023-02-28T13:56:54;32.55;;;30.13;;
1995;SDS011;38556;47.068;15.408;2023-02-28T13:59:33;40.38;;;31.52;;
1995;SDS011;38556;47.068;15.408;2023-02-28T14:02:24;35.35;;;32.42;;
1995;SDS011;38556;47.068;15.408;2023-02-28T14:05:06;35.17;;;32.28;;
1995;SDS011;38556;47.068;15.408;2023-02-28T14:07:41;35.17;;;32.05;;
1995;SDS011;38556;47.068;15.408;2023-02-28T14:10:24;35.05;;;31.95;;
1995;SDS011;38556;47.068;15.408;2023-02-28T14:12:57;30.83;;;28.52;;
1995;SDS011;38556;47.068;15.408;2023-02-28T14:15:38;34.30;;;31.52;;
1995;SDS011;38556;47.068;15.408;2023-02-28T14:18:22;34.08;;;31.38;;
1995;SDS011;38556;47.068;15.408;2023-02-28T14:20:54;36.72;;;33.63;;
1995;SDS011;38556;47.068;15.408;2023-02-28T14:23:36;35.05;;;32.65;;
1995;SDS011;38556;47.068;15.408;2023-02-28T14:26:37;33.63;;;31.05;;
1995;SDS011;38556;47.068;15.408;2023-02-28T14:29:23;34.47;;;31.88;;
1995;SDS011;38556;47.068;15.408;2023-02-28T14:32:13;33.45;;;30.85;;
1995;SDS011;38556;47.068;15.408;2023-02-28T14:34:50;34.35;;;31.73;;
1995;SDS011;38556;47.068;15.408;2023-02-28T14:37:24;36.75;;;33.95;;
1995;SDS011;38556;47.068;15.408;2023-02-28T14:39:55;35.45;;;32.40;;
1995;SDS011;38556;47.068;15.408;2023-02-28T14:42:30;35.38;;;32.67;;
1995;SDS011;38556;47.068;15.408;2023-02-28T14:44:58;34.95;;;32.30;;
1995;SDS011;38556;47.068;15.408;2023-02-28T14:47:28;34.28;;;31.55;;
1995;SDS011;38556;47.068;15.408;2023-02-28T14:49:59;35.15;;;32.25;;
1995;SDS011;38556;47.068;15.408;2023-02-28T14:52:30;34.33;;;31.70;;
1995;SDS011;38556;47.068;15.408;2023-02-28T14:55:01;33.40;;;31.10;;
1995;SDS011;38556;47.068;15.408;2023-02-28T14:57:33;34.40;;;31.58;;
1995;SDS011;38556;47.068;15.408;2023-02-28T15:00:02;34.33;;;31.50;;
1995;SDS011;38556;47.068;15.408;2023-02-28T15:02:38;33.20;;;30.65;;
1995;SDS011;38556;47.068;15.408;2023-02-28T15:05:19;34.03;;;31.65;;
1995;SDS011;38556;47.068;15.408;2023-02-28T15:08:00;34.38;;;31.58;;